sensor_id;sensor_type;location;lat;lon;timestamp;P1;durP1;ratioP1;P2;durP2;ratioP2
10874;SDS011;5490;52.200;8.786;2022-07-01T00:00:50;3.28;;;2.25;;
10874;SDS011;5490;52.200;8.786;2022-07-01T00:03:17;2.42;;;2.15;;
10874;SDS011;5490;52.200;8.786;2022-07-01T00:05:46;3.03;;;2.30;;
10874;SDS011;5490;52.200;8.786;2022-07-01T00:08:13;2.63;;;2.33;;
10874;SDS011;5490;52.200;8.786;2022-07-01T00:10:39;2.55;;;2.30;;
10874;SDS011;5490;52.200;8.786;2022-07-01T00:13:06;2.80;;;2.50;;
10874;SDS011;5490;52.200;8.786;2022-07-01T00:15:33;4.55;;;2.60;;
10874;SDS011;5490;52.200;8.786;2022-07-01T00:18:02;3.25;;;2.50;;
10874;SDS011;5490;52.200;8.786;2022-07-01T00:20:29;2.67;;;2.47;;
10874;SDS011;5490;52.200;8.786;2022-07-01T00:22:58;7.10;;;2.25;;
10874;SDS011;5490;52.200;8.786;2022-07-01T00:25:25;2.22;;;2.03;;
10874;SDS011;5490;52.200;8.786;2022-07-01T00:27:52;2.40;;;2.15;;
10874;SDS011;5490;52.200;8.786;2022-07-01T00:30:19;3.85;;;2.20;;
10874;SDS011;5490;52.200;8.786;2022-07-01T00:32:46;3.13;;;1.77;;
10874;SDS011;5490;52.200;8.786;2022-07-01T00:35:13;2.47;;;2.28;;
10874;SDS011;5490;52.200;8.786;2022-07-01T00:37:40;1.88;;;1.52;;
10874;SDS011;5490;52.200;8.786;2022-07-01T00:40:08;1.70;;;1.60;;
10874;SDS011;5490;52.200;8.786;2022-07-01T00:42:38;2.60;;;1.95;;
10874;SDS011;5490;52.200;8.786;2022-07-01T00:45:08;1.58;;;1.48;;
10874;SDS011;5490;52.200;8.786;2022-07-01T00:47:40;1.67;;;1.50;;
10874;SDS011;5490;52.200;8.786;2022-07-01T00:50:08;1.58;;;1.48;;
10874;SDS011;5490;52.200;8.786;2022-07-01T00:52:39;1.73;;;1.60;;
10874;SDS011;5490;52.200;8.786;2022-07-01T00:55:07;2.85;;;1.70;;
10874;SDS011;5490;52.200;8.786;2022-07-01T00:57:38;2.47;;;1.58;;
10874;SDS011;5490;52.200;8.786;2022-07-01T01:00:06;1.52;;;1.40;;
10874;SDS011;5490;52.200;8.786;2022-07-01T01:02:35;2.08;;;1.60;;
10874;SDS011;5490;52.200;8.786;2022-07-01T01:05:03;1.17;;;1.10;;
10874;SDS011;5490;52.200;8.786;2022-07-01T01:07:30;1.55;;;1.45;;
10874;SDS011;5490;52.200;8.786;2022-07-01T01:09:58;1.55;;;1.42;;
10874;SDS011;5490;52.200;8.786;2022-07-01T01:12:28;3.13;;;1.80;;
10874;SDS011;5490;52.200;8.786;2022-07-01T01:14:56;1.90;;;1.63;;
10874;SDS011;5490;52.200;8.786;2022-07-01T01:17:23;1.55;;;1.45;;
10874;SDS011;5490;52.200;8.786;2022-07-01T01:19:50;2.50;;;1.30;;
10874;SDS011;5490;52.200;8.786;2022-07-01T01:22:20;2.08;;;1.27;;
10874;SDS011;5490;52.200;8.786;2022-07-01T01:24:49;2.42;;;1.88;;
10874;SDS011;5490;52.200;8.786;2022-07-01T01:27:18;1.55;;;1.45;;
10874;SDS011;5490;52.200;8.786;2022-07-01T01:29:45;1.98;;;1.45;;
10874;SDS011;5490;52.200;8.786;2022-07-01T01:32:11;1.45;;;1.35;;
10874;SDS011;5490;52.200;8.786;2022-07-01T01:34:38;2.33;;;1.38;;
10874;SDS011;5490;52.200;8.786;2022-07-01T01:37:06;4.05;;;1.23;;
10874;SDS011;5490;52.200;8.786;2022-07-01T01:39:35;1.70;;;1.60;;
10874;SDS011;5490;52.200;8.786;2022-07-01T01:42:03;2.45;;;1.20;;
10874;SDS011;5490;52.200;8.786;2022-07-01T01:44:30;1.13;;;1.10;;
10874;SDS011;5490;52.200;8.786;2022-07-01T01:46:58;2.33;;;1.20;;
10874;SDS011;5490;52.200;8.786;2022-07-01T01:49:24;2.03;;;1.10;;
10874;SDS011;5490;52.200;8.786;2022-07-01T01:51:51;1.33;;;1.23;;
10874;SDS011;5490;52.200;8.786;2022-07-01T01:54:19;4.30;;;1.55;;
10874;SDS011;5490;52.200;8.786;2022-07-01T01:56:47;1.30;;;1.20;;
10874;SDS011;5490;52.200;8.786;2022-07-01T01:59:14;1.60;;;1.40;;
10874;SDS011;5490;52.200;8.786;2022-07-01T02:01:41;1.10;;;1.00;;
10874;SDS011;5490;52.200;8.786;2022-07-01T02:04:08;2.78;;;1.25;;
10874;SDS011;5490;52.200;8.786;2022-07-01T02:06:35;1.80;;;1.30;;
10874;SDS011;5490;52.200;8.786;2022-07-01T02:09:02;1.45;;;1.35;;
10874;SDS011;5490;52.200;8.786;2022-07-01T02:11:29;1.48;;;0.98;;
10874;SDS011;5490;52.200;8.786;2022-07-01T02:13:58;1.25;;;1.15;;
10874;SDS011;5490;52.200;8.786;2022-07-01T02:16:27;1.45;;;1.35;;
10874;SDS011;5490;52.200;8.786;2022-07-01T02:18:56;1.25;;;1.08;;
10874;SDS011;5490;52.200;8.786;2022-07-01T02:21:23;1.30;;;1.20;;
10874;SDS011;5490;52.200;8.786;2022-07-01T02:23:50;2.15;;;1.13;;
10874;SDS011;5490;52.200;8.786;2022-07-01T02:26:17;1.60;;;1.50;;
10874;SDS011;5490;52.200;8.786;2022-07-01T02:28:44;1.67;;;1.13;;
10874;SDS011;5490;52.200;8.786;2022-07-01T02:31:13;1.05;;;1.05;;
10874;SDS011;5490;52.200;8.786;2022-07-01T02:33:40;1.73;;;1.38;;
10874;SDS011;5490;52.200;8.786;2022-07-01T02:36:07;2.92;;;1.45;;
10874;SDS011;5490;52.200;8.786;2022-07-01T02:38:37;1.40;;;1.30;;
10874;SDS011;5490;52.200;8.786;2022-07-01T02:41:04;1.50;;;1.20;;
10874;SDS011;5490;52.200;8.786;2022-07-01T02:43:31;1.98;;;1.40;;
10874;SDS011;5490;52.200;8.786;2022-07-01T02:45:58;1.42;;;1.33;;
10874;SDS011;5490;52.200;8.786;2022-07-01T02:48:26;2.20;;;1.45;;
10874;SDS011;5490;52.200;8.786;2022-07-01T02:50:53;1.50;;;1.40;;
10874;SDS011;5490;52.200;8.786;2022-07-01T02:53:20;4.10;;;1.50;;
10874;SDS011;5490;52.200;8.786;2022-07-01T02:55:47;2.00;;;1.50;;
10874;SDS011;5490;52.200;8.786;2022-07-01T02:58:14;2.90;;;1.80;;
10874;SDS011;5490;52.200;8.786;2022-07-01T03:00:41;1.48;;;1.38;;
10874;SDS011;5490;52.200;8.786;2022-07-01T03:03:11;3.63;;;2.10;;
10874;SDS011;5490;52.200;8.786;2022-07-01T03:05:39;1.77;;;1.50;;
10874;SDS011;5490;52.200;8.786;2022-07-01T03:08:08;2.60;;;1.50;;
10874;SDS011;5490;52.200;8.786;2022-07-01T03:10:36;4.35;;;1.65;;
10874;SDS011;5490;52.200;8.786;2022-07-01T03:13:03;3.92;;;1.52;;
10874;SDS011;5490;52.200;8.786;2022-07-01T03:15:30;3.72;;;1.48;;
10874;SDS011;5490;52.200;8.786;2022-07-01T03:17:57;2.95;;;1.50;;
10874;SDS011;5490;52.200;8.786;2022-07-01T03:20:24;3.42;;;1.50;;
10874;SDS011;5490;52.200;8.786;2022-07-01T03:22:53;2.50;;;1.70;;
10874;SDS011;5490;52.200;8.786;2022-07-01T03:25:20;2.25;;;1.58;;
10874;SDS011;5490;52.200;8.786;2022-07-01T03:27:47;5.70;;;1.85;;
10874;SDS011;5490;52.200;8.786;2022-07-01T03:30:14;1.60;;;1.48;;
10874;SDS011;5490;52.200;8.786;2022-07-01T03:32:43;2.17;;;1.98;;
10874;SDS011;5490;52.200;8.786;2022-07-01T03:35:10;2.03;;;1.83;;
10874;SDS011;5490;52.200;8.786;2022-07-01T03:37:55;1.50;;;1.40;;
10874;SDS011;5490;52.200;8.786;2022-07-01T03:40:22;2.00;;;1.60;;
10874;SDS011;5490;52.200;8.786;2022-07-01T03:42:50;1.50;;;1.40;;
10874;SDS011;5490;52.200;8.786;2022-07-01T03:45:20;2.83;;;2.10;;
10874;SDS011;5490;52.200;8.786;2022-07-01T03:47:49;2.38;;;1.77;;
10874;SDS011;5490;52.200;8.786;2022-07-01T03:50:16;2.03;;;1.50;;
10874;SDS011;5490;52.200;8.786;2022-07-01T03:52:46;3.38;;;1.85;;
10874;SDS011;5490;52.200;8.786;2022-07-01T03:55:14;1.85;;;1.65;;
10874;SDS011;5490;52.200;8.786;2022-07-01T03:57:41;2.65;;;2.08;;
10874;SDS011;5490;52.200;8.786;2022-07-01T04:00:09;2.05;;;1.88;;
10874;SDS011;5490;52.200;8.786;2022-07-01T04:02:37;3.15;;;2.15;;
10874;SDS011;5490;52.200;8.786;2022-07-01T04:05:04;3.92;;;2.33;;
10874;SDS011;5490;52.200;8.786;2022-07-01T04:07:31;4.88;;;2.45;;
10874;SDS011;5490;52.200;8.786;2022-07-01T04:09:58;3.10;;;2.40;;
10874;SDS011;5490;52.200;8.786;2022-07-01T04:12:26;3.53;;;2.45;;
10874;SDS011;5490;52.200;8.786;2022-07-01T04:14:53;2.97;;;2.60;;
10874;SDS011;5490;52.200;8.786;2022-07-01T04:17:20;4.32;;;2.63;;
10874;SDS011;5490;52.200;8.786;2022-07-01T04:19:47;2.88;;;2.20;;
10874;SDS011;5490;52.200;8.786;2022-07-01T04:22:14;2.95;;;2.50;;
10874;SDS011;5490;52.200;8.786;2022-07-01T04:24:59;3.20;;;2.28;;
10874;SDS011;5490;52.200;8.786;2022-07-01T04:27:31;3.17;;;2.40;;
10874;SDS011;5490;52.200;8.786;2022-07-01T04:29:59;2.97;;;2.53;;
10874;SDS011;5490;52.200;8.786;2022-07-01T04:32:27;2.67;;;2.35;;
10874;SDS011;5490;52.200;8.786;2022-07-01T04:34:55;5.15;;;3.45;;
10874;SDS011;5490;52.200;8.786;2022-07-01T04:37:22;2.90;;;2.60;;
10874;SDS011;5490;52.200;8.786;2022-07-01T04:39:49;3.17;;;2.72;;
10874;SDS011;5490;52.200;8.786;2022-07-01T04:42:16;3.80;;;3.00;;
10874;SDS011;5490;52.200;8.786;2022-07-01T04:44:46;2.60;;;2.40;;
10874;SDS011;5490;52.200;8.786;2022-07-01T04:47:13;3.13;;;2.83;;
10874;SDS011;5490;52.200;8.786;2022-07-01T04:49:41;5.13;;;3.60;;
10874;SDS011;5490;52.200;8.786;2022-07-01T04:52:08;6.15;;;3.20;;
10874;SDS011;5490;52.200;8.786;2022-07-01T04:54:35;3.05;;;2.75;;
10874;SDS011;5490;52.200;8.786;2022-07-01T04:57:02;3.72;;;2.75;;
10874;SDS011;5490;52.200;8.786;2022-07-01T04:59:29;2.65;;;2.45;;
10874;SDS011;5490;52.200;8.786;2022-07-01T05:01:58;3.13;;;2.65;;
10874;SDS011;5490;52.200;8.786;2022-07-01T05:04:24;4.80;;;2.88;;
10874;SDS011;5490;52.200;8.786;2022-07-01T05:06:53;3.67;;;2.80;;
10874;SDS011;5490;52.200;8.786;2022-07-01T05:09:20;3.30;;;3.00;;
10874;SDS011;5490;52.200;8.786;2022-07-01T05:11:47;4.63;;;3.75;;
10874;SDS011;5490;52.200;8.786;2022-07-01T05:14:15;6.65;;;3.80;;
10874;SDS011;5490;52.200;8.786;2022-07-01T05:16:47;5.88;;;3.22;;
10874;SDS011;5490;52.200;8.786;2022-07-01T05:19:15;6.63;;;3.35;;
10874;SDS011;5490;52.200;8.786;2022-07-01T05:21:59;3.35;;;2.83;;
10874;SDS011;5490;52.200;8.786;2022-07-01T05:24:27;3.20;;;2.90;;
10874;SDS011;5490;52.200;8.786;2022-07-01T05:26:56;4.20;;;3.25;;
10874;SDS011;5490;52.200;8.786;2022-07-01T05:29:24;6.25;;;3.70;;
10874;SDS011;5490;52.200;8.786;2022-07-01T05:31:51;5.47;;;3.75;;
10874;SDS011;5490;52.200;8.786;2022-07-01T05:34:19;7.10;;;5.40;;
10874;SDS011;5490;52.200;8.786;2022-07-01T05:36:46;5.70;;;4.15;;
10874;SDS011;5490;52.200;8.786;2022-07-01T05:39:13;6.00;;;4.45;;
10874;SDS011;5490;52.200;8.786;2022-07-01T05:41:41;5.50;;;4.20;;
10874;SDS011;5490;52.200;8.786;2022-07-01T05:44:10;9.23;;;5.15;;
10874;SDS011;5490;52.200;8.786;2022-07-01T05:46:37;5.38;;;4.10;;
10874;SDS011;5490;52.200;8.786;2022-07-01T05:49:04;6.13;;;4.47;;
10874;SDS011;5490;52.200;8.786;2022-07-01T05:51:34;5.68;;;4.38;;
10874;SDS011;5490;52.200;8.786;2022-07-01T05:54:02;5.25;;;4.35;;
10874;SDS011;5490;52.200;8.786;2022-07-01T05:56:29;4.88;;;3.60;;
10874;SDS011;5490;52.200;8.786;2022-07-01T05:59:01;7.80;;;3.80;;
10874;SDS011;5490;52.200;8.786;2022-07-01T06:01:28;4.35;;;3.38;;
10874;SDS011;5490;52.200;8.786;2022-07-01T06:03:56;4.70;;;4.03;;
10874;SDS011;5490;52.200;8.786;2022-07-01T06:06:23;6.35;;;3.40;;
10874;SDS011;5490;52.200;8.786;2022-07-01T06:08:51;5.45;;;4.03;;
10874;SDS011;5490;52.200;8.786;2022-07-01T06:11:18;4.50;;;3.92;;
10874;SDS011;5490;52.200;8.786;2022-07-01T06:13:45;4.07;;;3.67;;
10874;SDS011;5490;52.200;8.786;2022-07-01T06:16:13;6.25;;;4.03;;
10874;SDS011;5490;52.200;8.786;2022-07-01T06:18:41;6.47;;;4.50;;
10874;SDS011;5490;52.200;8.786;2022-07-01T06:21:08;4.53;;;3.90;;
10874;SDS011;5490;52.200;8.786;2022-07-01T06:23:36;4.70;;;3.92;;
10874;SDS011;5490;52.200;8.786;2022-07-01T06:26:04;4.28;;;3.40;;
10874;SDS011;5490;52.200;8.786;2022-07-01T06:28:31;5.43;;;4.25;;
10874;SDS011;5490;52.200;8.786;2022-07-01T06:30:58;6.40;;;4.50;;
10874;SDS011;5490;52.200;8.786;2022-07-01T06:33:26;6.60;;;5.22;;
10874;SDS011;5490;52.200;8.786;2022-07-01T06:35:58;5.00;;;4.05;;
10874;SDS011;5490;52.200;8.786;2022-07-01T06:38:28;6.38;;;4.45;;
10874;SDS011;5490;52.200;8.786;2022-07-01T06:40:57;5.78;;;4.32;;
10874;SDS011;5490;52.200;8.786;2022-07-01T06:43:43;5.93;;;5.03;;
10874;SDS011;5490;52.200;8.786;2022-07-01T06:46:10;5.82;;;5.00;;
10874;SDS011;5490;52.200;8.786;2022-07-01T06:48:37;6.45;;;5.05;;
10874;SDS011;5490;52.200;8.786;2022-07-01T06:51:05;7.18;;;5.07;;
10874;SDS011;5490;52.200;8.786;2022-07-01T06:53:32;6.53;;;5.15;;
10874;SDS011;5490;52.200;8.786;2022-07-01T06:55:59;7.53;;;5.10;;
10874;SDS011;5490;52.200;8.786;2022-07-01T06:58:26;6.43;;;5.30;;
10874;SDS011;5490;52.200;8.786;2022-07-01T07:00:55;7.97;;;5.80;;
10874;SDS011;5490;52.200;8.786;2022-07-01T07:03:22;8.60;;;5.60;;
10874;SDS011;5490;52.200;8.786;2022-07-01T07:05:49;8.82;;;6.00;;
10874;SDS011;5490;52.200;8.786;2022-07-01T07:08:17;8.80;;;5.35;;
10874;SDS011;5490;52.200;8.786;2022-07-01T07:10:44;6.70;;;5.10;;
10874;SDS011;5490;52.200;8.786;2022-07-01T07:13:13;10.50;;;5.13;;
10874;SDS011;5490;52.200;8.786;2022-07-01T07:15:41;8.50;;;5.88;;
10874;SDS011;5490;52.200;8.786;2022-07-01T07:18:10;6.00;;;5.03;;
10874;SDS011;5490;52.200;8.786;2022-07-01T07:20:37;7.10;;;5.60;;
10874;SDS011;5490;52.200;8.786;2022-07-01T07:23:04;9.50;;;5.70;;
10874;SDS011;5490;52.200;8.786;2022-07-01T07:25:32;6.72;;;5.63;;
10874;SDS011;5490;52.200;8.786;2022-07-01T07:28:00;8.82;;;5.43;;
10874;SDS011;5490;52.200;8.786;2022-07-01T07:30:28;7.80;;;5.50;;
10874;SDS011;5490;52.200;8.786;2022-07-01T07:32:55;10.02;;;6.03;;
10874;SDS011;5490;52.200;8.786;2022-07-01T07:35:27;7.95;;;5.82;;
10874;SDS011;5490;52.200;8.786;2022-07-01T07:37:54;8.18;;;6.00;;
10874;SDS011;5490;52.200;8.786;2022-07-01T07:40:22;9.25;;;5.63;;
10874;SDS011;5490;52.200;8.786;2022-07-01T07:42:49;10.18;;;6.78;;
10874;SDS011;5490;52.200;8.786;2022-07-01T07:45:16;9.13;;;6.03;;
10874;SDS011;5490;52.200;8.786;2022-07-01T07:47:43;9.90;;;6.68;;
10874;SDS011;5490;52.200;8.786;2022-07-01T07:50:14;13.23;;;6.10;;
10874;SDS011;5490;52.200;8.786;2022-07-01T07:52:43;9.52;;;6.20;;
10874;SDS011;5490;52.200;8.786;2022-07-01T07:55:11;9.48;;;5.90;;
10874;SDS011;5490;52.200;8.786;2022-07-01T07:57:45;7.32;;;5.20;;
10874;SDS011;5490;52.200;8.786;2022-07-01T08:00:12;8.38;;;5.82;;
10874;SDS011;5490;52.200;8.786;2022-07-01T08:02:40;9.18;;;5.75;;
10874;SDS011;5490;52.200;8.786;2022-07-01T08:05:08;7.47;;;5.70;;
10874;SDS011;5490;52.200;8.786;2022-07-01T08:07:36;9.60;;;6.15;;
10874;SDS011;5490;52.200;8.786;2022-07-01T08:10:05;9.45;;;6.22;;
10874;SDS011;5490;52.200;8.786;2022-07-01T08:12:34;9.85;;;6.28;;
10874;SDS011;5490;52.200;8.786;2022-07-01T08:15:01;11.30;;;7.05;;
10874;SDS011;5490;52.200;8.786;2022-07-01T08:17:29;9.82;;;6.40;;
10874;SDS011;5490;52.200;8.786;2022-07-01T08:19:56;9.27;;;5.90;;
10874;SDS011;5490;52.200;8.786;2022-07-01T08:22:24;10.25;;;6.90;;
10874;SDS011;5490;52.200;8.786;2022-07-01T08:24:52;9.68;;;6.55;;
10874;SDS011;5490;52.200;8.786;2022-07-01T08:27:20;9.70;;;6.32;;
10874;SDS011;5490;52.200;8.786;2022-07-01T08:29:48;12.77;;;6.35;;
10874;SDS011;5490;52.200;8.786;2022-07-01T08:32:15;10.73;;;7.32;;
10874;SDS011;5490;52.200;8.786;2022-07-01T08:34:43;11.35;;;6.63;;
10874;SDS011;5490;52.200;8.786;2022-07-01T08:37:11;9.15;;;6.78;;
10874;SDS011;5490;52.200;8.786;2022-07-01T08:39:40;7.53;;;5.63;;
10874;SDS011;5490;52.200;8.786;2022-07-01T08:42:14;7.78;;;5.35;;
10874;SDS011;5490;52.200;8.786;2022-07-01T08:44:45;9.73;;;5.72;;
10874;SDS011;5490;52.200;8.786;2022-07-01T08:47:12;9.73;;;5.43;;
10874;SDS011;5490;52.200;8.786;2022-07-01T08:49:39;6.53;;;5.13;;
10874;SDS011;5490;52.200;8.786;2022-07-01T08:52:06;8.73;;;5.55;;
10874;SDS011;5490;52.200;8.786;2022-07-01T08:54:35;6.63;;;4.55;;
10874;SDS011;5490;52.200;8.786;2022-07-01T08:57:04;5.07;;;4.10;;
10874;SDS011;5490;52.200;8.786;2022-07-01T08:59:33;6.00;;;4.55;;
10874;SDS011;5490;52.200;8.786;2022-07-01T09:02:02;4.30;;;3.90;;
10874;SDS011;5490;52.200;8.786;2022-07-01T09:04:31;6.32;;;4.20;;
10874;SDS011;5490;52.200;8.786;2022-07-01T09:07:02;5.45;;;3.90;;
10874;SDS011;5490;52.200;8.786;2022-07-01T09:09:34;4.45;;;3.65;;
10874;SDS011;5490;52.200;8.786;2022-07-01T09:12:02;4.25;;;3.30;;
10874;SDS011;5490;52.200;8.786;2022-07-01T09:14:34;4.95;;;3.72;;
10874;SDS011;5490;52.200;8.786;2022-07-01T09:17:04;4.68;;;3.60;;
10874;SDS011;5490;52.200;8.786;2022-07-01T09:19:33;5.85;;;3.53;;
10874;SDS011;5490;52.200;8.786;2022-07-01T09:22:01;5.18;;;3.72;;
10874;SDS011;5490;52.200;8.786;2022-07-01T09:24:35;4.38;;;3.85;;
10874;SDS011;5490;52.200;8.786;2022-07-01T09:27:07;6.57;;;4.68;;
10874;SDS011;5490;52.200;8.786;2022-07-01T09:29:37;5.15;;;3.63;;
10874;SDS011;5490;52.200;8.786;2022-07-01T09:32:07;7.85;;;4.50;;
10874;SDS011;5490;52.200;8.786;2022-07-01T09:34:36;5.38;;;3.40;;
10874;SDS011;5490;52.200;8.786;2022-07-01T09:37:10;4.82;;;3.67;;
10874;SDS011;5490;52.200;8.786;2022-07-01T09:39:41;5.38;;;3.88;;
10874;SDS011;5490;52.200;8.786;2022-07-01T09:42:11;5.38;;;3.55;;
10874;SDS011;5490;52.200;8.786;2022-07-01T09:44:50;4.65;;;3.75;;
10874;SDS011;5490;52.200;8.786;2022-07-01T09:47:23;6.97;;;3.95;;
10874;SDS011;5490;52.200;8.786;2022-07-01T09:49:50;5.80;;;3.92;;
10874;SDS011;5490;52.200;8.786;2022-07-01T09:52:18;4.53;;;3.60;;
10874;SDS011;5490;52.200;8.786;2022-07-01T09:54:47;5.18;;;3.78;;
10874;SDS011;5490;52.200;8.786;2022-07-01T09:57:21;4.60;;;2.97;;
10874;SDS011;5490;52.200;8.786;2022-07-01T10:00:23;4.90;;;3.33;;
10874;SDS011;5490;52.200;8.786;2022-07-01T10:03:23;7.70;;;3.83;;
10874;SDS011;5490;52.200;8.786;2022-07-01T10:05:54;3.97;;;2.92;;
10874;SDS011;5490;52.200;8.786;2022-07-01T10:08:38;5.10;;;3.58;;
10874;SDS011;5490;52.200;8.786;2022-07-01T10:11:27;3.28;;;2.78;;
10874;SDS011;5490;52.200;8.786;2022-07-01T10:14:20;3.28;;;2.97;;
10874;SDS011;5490;52.200;8.786;2022-07-01T10:16:48;6.95;;;3.42;;
10874;SDS011;5490;52.200;8.786;2022-07-01T10:19:27;4.35;;;2.75;;
10874;SDS011;5490;52.200;8.786;2022-07-01T10:21:59;3.40;;;2.72;;
10874;SDS011;5490;52.200;8.786;2022-07-01T10:24:47;5.03;;;3.17;;
10874;SDS011;5490;52.200;8.786;2022-07-01T10:27:18;3.45;;;2.72;;
10874;SDS011;5490;52.200;8.786;2022-07-01T10:29:47;3.25;;;2.95;;
10874;SDS011;5490;52.200;8.786;2022-07-01T10:32:25;5.72;;;3.28;;
10874;SDS011;5490;52.200;8.786;2022-07-01T10:35:04;5.47;;;3.40;;
10874;SDS011;5490;52.200;8.786;2022-07-01T10:37:32;3.30;;;3.00;;
10874;SDS011;5490;52.200;8.786;2022-07-01T10:40:00;4.13;;;2.75;;
10874;SDS011;5490;52.200;8.786;2022-07-01T10:42:29;3.15;;;2.70;;
10874;SDS011;5490;52.200;8.786;2022-07-01T10:45:00;4.13;;;2.90;;
10874;SDS011;5490;52.200;8.786;2022-07-01T10:47:30;4.28;;;2.72;;
10874;SDS011;5490;52.200;8.786;2022-07-01T10:49:58;5.10;;;2.67;;
10874;SDS011;5490;52.200;8.786;2022-07-01T10:52:30;3.78;;;2.50;;
10874;SDS011;5490;52.200;8.786;2022-07-01T10:54:58;4.22;;;2.78;;
10874;SDS011;5490;52.200;8.786;2022-07-01T10:57:27;5.25;;;2.97;;
10874;SDS011;5490;52.200;8.786;2022-07-01T11:05:41;3.40;;;2.75;;
10874;SDS011;5490;52.200;8.786;2022-07-01T11:08:10;5.07;;;2.95;;
10874;SDS011;5490;52.200;8.786;2022-07-01T11:10:38;2.78;;;2.42;;
10874;SDS011;5490;52.200;8.786;2022-07-01T11:13:07;3.47;;;3.00;;
10874;SDS011;5490;52.200;8.786;2022-07-01T11:15:35;3.55;;;2.42;;
10874;SDS011;5490;52.200;8.786;2022-07-01T11:18:02;3.30;;;2.75;;
10874;SDS011;5490;52.200;8.786;2022-07-01T11:20:31;2.90;;;2.60;;
10874;SDS011;5490;52.200;8.786;2022-07-01T11:22:59;1.67;;;1.58;;
10874;SDS011;5490;52.200;8.786;2022-07-01T11:25:29;3.88;;;1.92;;
10874;SDS011;5490;52.200;8.786;2022-07-01T11:27:58;1.70;;;1.60;;
10874;SDS011;5490;52.200;8.786;2022-07-01T11:30:26;1.92;;;1.67;;
10874;SDS011;5490;52.200;8.786;2022-07-01T11:33:03;2.05;;;1.90;;
10874;SDS011;5490;52.200;8.786;2022-07-01T11:35:33;1.98;;;1.88;;
10874;SDS011;5490;52.200;8.786;2022-07-01T11:38:19;2.30;;;1.80;;
10874;SDS011;5490;52.200;8.786;2022-07-01T11:41:07;2.88;;;2.08;;
10874;SDS011;5490;52.200;8.786;2022-07-01T11:43:44;1.58;;;1.48;;
10874;SDS011;5490;52.200;8.786;2022-07-01T11:46:12;2.33;;;1.92;;
10874;SDS011;5490;52.200;8.786;2022-07-01T11:48:40;3.10;;;1.90;;
10874;SDS011;5490;52.200;8.786;2022-07-01T11:51:09;2.28;;;2.08;;
10874;SDS011;5490;52.200;8.786;2022-07-01T11:53:39;2.80;;;2.08;;
10874;SDS011;5490;52.200;8.786;2022-07-01T11:56:12;2.33;;;2.00;;
10874;SDS011;5490;52.200;8.786;2022-07-01T11:58:49;4.43;;;2.05;;
10874;SDS011;5490;52.200;8.786;2022-07-01T12:01:22;2.47;;;2.08;;
10874;SDS011;5490;52.200;8.786;2022-07-01T12:03:51;3.38;;;2.00;;
10874;SDS011;5490;52.200;8.786;2022-07-01T12:06:24;2.17;;;1.98;;
10874;SDS011;5490;52.200;8.786;2022-07-01T12:08:54;1.60;;;1.50;;
10874;SDS011;5490;52.200;8.786;2022-07-01T12:11:25;2.95;;;2.50;;
10874;SDS011;5490;52.200;8.786;2022-07-01T12:13:53;4.50;;;2.13;;
10874;SDS011;5490;52.200;8.786;2022-07-01T12:16:22;2.33;;;1.95;;
10874;SDS011;5490;52.200;8.786;2022-07-01T12:18:50;4.35;;;1.80;;
10874;SDS011;5490;52.200;8.786;2022-07-01T12:21:22;2.33;;;1.80;;
10874;SDS011;5490;52.200;8.786;2022-07-01T12:24:06;2.05;;;1.85;;
10874;SDS011;5490;52.200;8.786;2022-07-01T12:26:46;2.00;;;1.80;;
10874;SDS011;5490;52.200;8.786;2022-07-01T12:29:15;2.55;;;2.08;;
10874;SDS011;5490;52.200;8.786;2022-07-01T12:31:42;2.97;;;2.00;;
10874;SDS011;5490;52.200;8.786;2022-07-01T12:34:11;1.95;;;1.75;;
10874;SDS011;5490;52.200;8.786;2022-07-01T12:36:46;3.05;;;2.17;;
10874;SDS011;5490;52.200;8.786;2022-07-01T12:39:14;2.10;;;1.98;;
10874;SDS011;5490;52.200;8.786;2022-07-01T12:41:48;2.38;;;2.17;;
10874;SDS011;5490;52.200;8.786;2022-07-01T12:44:20;1.63;;;1.52;;
10874;SDS011;5490;52.200;8.786;2022-07-01T12:46:48;2.00;;;1.90;;
10874;SDS011;5490;52.200;8.786;2022-07-01T12:49:19;2.40;;;2.20;;
10874;SDS011;5490;52.200;8.786;2022-07-01T12:51:48;2.28;;;2.08;;
10874;SDS011;5490;52.200;8.786;2022-07-01T12:54:31;2.13;;;1.63;;
10874;SDS011;5490;52.200;8.786;2022-07-01T12:57:03;2.33;;;1.85;;
10874;SDS011;5490;52.200;8.786;2022-07-01T12:59:48;2.88;;;1.98;;
10874;SDS011;5490;52.200;8.786;2022-07-01T13:02:52;3.03;;;2.20;;
10874;SDS011;5490;52.200;8.786;2022-07-01T13:05:22;4.18;;;1.95;;
10874;SDS011;5490;52.200;8.786;2022-07-01T13:07:49;4.20;;;1.98;;
10874;SDS011;5490;52.200;8.786;2022-07-01T13:10:17;3.33;;;1.88;;
10874;SDS011;5490;52.200;8.786;2022-07-01T13:12:47;1.92;;;1.83;;
10874;SDS011;5490;52.200;8.786;2022-07-01T13:15:19;1.75;;;1.65;;
10874;SDS011;5490;52.200;8.786;2022-07-01T13:17:48;2.22;;;2.03;;
10874;SDS011;5490;52.200;8.786;2022-07-01T13:20:15;5.00;;;2.13;;
10874;SDS011;5490;52.200;8.786;2022-07-01T13:22:43;1.83;;;1.55;;
10874;SDS011;5490;52.200;8.786;2022-07-01T13:25:13;1.92;;;1.67;;
10874;SDS011;5490;52.200;8.786;2022-07-01T13:27:43;2.75;;;2.05;;
10874;SDS011;5490;52.200;8.786;2022-07-01T13:30:13;2.35;;;1.90;;
10874;SDS011;5490;52.200;8.786;2022-07-01T13:32:41;3.03;;;1.52;;
10874;SDS011;5490;52.200;8.786;2022-07-01T13:35:12;1.77;;;1.65;;
10874;SDS011;5490;52.200;8.786;2022-07-01T13:37:41;2.97;;;2.20;;
10874;SDS011;5490;52.200;8.786;2022-07-01T13:40:09;2.22;;;1.80;;
10874;SDS011;5490;52.200;8.786;2022-07-01T13:42:37;1.52;;;1.40;;
10874;SDS011;5490;52.200;8.786;2022-07-01T13:45:06;1.52;;;1.42;;
10874;SDS011;5490;52.200;8.786;2022-07-01T13:47:35;5.80;;;1.70;;
10874;SDS011;5490;52.200;8.786;2022-07-01T13:50:04;1.67;;;1.58;;
10874;SDS011;5490;52.200;8.786;2022-07-01T13:52:35;1.52;;;1.45;;
10874;SDS011;5490;52.200;8.786;2022-07-01T13:55:20;2.00;;;1.73;;
10874;SDS011;5490;52.200;8.786;2022-07-01T13:58:22;21.70;;;2.88;;
10874;SDS011;5490;52.200;8.786;2022-07-01T14:00:49;1.50;;;1.40;;
10874;SDS011;5490;52.200;8.786;2022-07-01T14:03:17;2.08;;;1.42;;
10874;SDS011;5490;52.200;8.786;2022-07-01T14:05:45;1.40;;;1.30;;
10874;SDS011;5490;52.200;8.786;2022-07-01T14:08:12;1.52;;;1.42;;
10874;SDS011;5490;52.200;8.786;2022-07-01T14:10:40;2.67;;;1.60;;
10874;SDS011;5490;52.200;8.786;2022-07-01T14:13:09;1.58;;;1.48;;
10874;SDS011;5490;52.200;8.786;2022-07-01T14:15:37;2.58;;;1.45;;
10874;SDS011;5490;52.200;8.786;2022-07-01T14:18:04;1.60;;;1.50;;
10874;SDS011;5490;52.200;8.786;2022-07-01T14:20:34;2.45;;;1.35;;
10874;SDS011;5490;52.200;8.786;2022-07-01T14:23:01;3.72;;;1.55;;
10874;SDS011;5490;52.200;8.786;2022-07-01T14:25:29;1.67;;;1.58;;
10874;SDS011;5490;52.200;8.786;2022-07-01T14:28:02;2.03;;;1.50;;
10874;SDS011;5490;52.200;8.786;2022-07-01T14:30:31;2.92;;;1.42;;
10874;SDS011;5490;52.200;8.786;2022-07-01T14:32:59;1.67;;;1.58;;
10874;SDS011;5490;52.200;8.786;2022-07-01T14:35:27;3.28;;;1.52;;
10874;SDS011;5490;52.200;8.786;2022-07-01T14:37:56;4.03;;;1.40;;
10874;SDS011;5490;52.200;8.786;2022-07-01T14:40:23;2.63;;;1.42;;
10874;SDS011;5490;52.200;8.786;2022-07-01T14:42:51;1.33;;;1.23;;
10874;SDS011;5490;52.200;8.786;2022-07-01T14:45:18;1.45;;;1.38;;
10874;SDS011;5490;52.200;8.786;2022-07-01T14:47:50;1.40;;;1.30;;
10874;SDS011;5490;52.200;8.786;2022-07-01T14:50:34;1.95;;;1.27;;
10874;SDS011;5490;52.200;8.786;2022-07-01T14:53:06;1.10;;;1.10;;
10874;SDS011;5490;52.200;8.786;2022-07-01T14:55:34;2.17;;;1.80;;
10874;SDS011;5490;52.200;8.786;2022-07-01T14:58:02;2.00;;;1.50;;
10874;SDS011;5490;52.200;8.786;2022-07-01T15:00:29;1.60;;;1.40;;
10874;SDS011;5490;52.200;8.786;2022-07-01T15:03:02;1.13;;;1.08;;
10874;SDS011;5490;52.200;8.786;2022-07-01T15:05:32;1.00;;;0.95;;
10874;SDS011;5490;52.200;8.786;2022-07-01T15:07:59;1.40;;;1.30;;
10874;SDS011;5490;52.200;8.786;2022-07-01T15:10:28;1.88;;;1.23;;
10874;SDS011;5490;52.200;8.786;2022-07-01T15:12:55;2.28;;;1.10;;
10874;SDS011;5490;52.200;8.786;2022-07-01T15:15:22;1.27;;;1.17;;
10874;SDS011;5490;52.200;8.786;2022-07-01T16:02:42;1.08;;;1.08;;
10874;SDS011;5490;52.200;8.786;2022-07-01T16:05:09;1.50;;;1.20;;